sensor_id;sensor_type;location;lat;lon;timestamp;temperature;humidity
21712;DHT22;11017;53.552;9.910;2023-02-01T00:02:23;5.90;99.90
21712;DHT22;11017;53.552;9.910;2023-02-01T00:04:50;5.90;99.90
21712;DHT22;11017;53.552;9.910;2023-02-01T00:07:16;6.10;99.90
21712;DHT22;11017;53.552;9.910;2023-02-01T00:09:45;6.10;99.90
21712;DHT22;11017;53.552;9.910;2023-02-01T00:12:13;6.20;99.90
21712;DHT22;11017;53.552;9.910;2023-02-01T00:14:41;6.20;99.90
21712;DHT22;11017;53.552;9.910;2023-02-01T00:17:08;6.20;99.90
21712;DHT22;11017;53.552;9.910;2023-02-01T00:19:35;6.20;99.90
21712;DHT22;11017;53.552;9.910;2023-02-01T00:22:02;6.20;99.90
21712;DHT22;11017;53.552;9.910;2023-02-01T00:24:29;6.30;99.90
21712;DHT22;11017;53.552;9.910;2023-02-01T00:26:56;6.40;99.90
21712;DHT22;11017;53.552;9.910;2023-02-01T00:29:22;6.30;99.90
21712;DHT22;11017;53.552;9.910;2023-02-01T00:31:51;6.40;99.90
21712;DHT22;11017;53.552;9.910;2023-02-01T00:34:19;6.30;99.90
21712;DHT22;11017;53.552;9.910;2023-02-01T00:36:46;6.30;99.90
21712;DHT22;11017;53.552;9.910;2023-02-01T00:39:13;6.40;99.90
21712;DHT22;11017;53.552;9.910;2023-02-01T00:41:40;6.40;99.90
21712;DHT22;11017;53.552;9.910;2023-02-01T00:44:07;6.50;99.90
21712;DHT22;11017;53.552;9.910;2023-02-01T00:46:34;6.50;99.90
21712;DHT22;11017;53.552;9.910;2023-02-01T00:49:03;6.50;99.90
21712;DHT22;11017;53.552;9.910;2023-02-01T00:51:31;6.40;99.90
21712;DHT22;11017;53.552;9.910;2023-02-01T00:53:57;6.50;99.90
21712;DHT22;11017;53.552;9.910;2023-02-01T00:56:24;6.50;99.90
21712;DHT22;11017;53.552;9.910;2023-02-01T00:58:53;6.40;99.90
21712;DHT22;11017;53.552;9.910;2023-02-01T01:01:23;6.40;99.90
21712;DHT22;11017;53.552;9.910;2023-02-01T01:03:52;6.40;99.90
21712;DHT22;11017;53.552;9.910;2023-02-01T01:06:23;6.50;99.90
21712;DHT22;11017;53.552;9.910;2023-02-01T01:08:51;6.50;99.90
21712;DHT22;11017;53.552;9.910;2023-02-01T01:11:21;6.60;99.90
21712;DHT22;11017;53.552;9.910;2023-02-01T01:13:49;6.60;99.90
21712;DHT22;11017;53.552;9.910;2023-02-01T01:16:17;6.60;99.90
21712;DHT22;11017;53.552;9.910;2023-02-01T01:18:45;6.70;99.90
21712;DHT22;11017;53.552;9.910;2023-02-01T01:21:14;6.70;99.90
21712;DHT22;11017;53.552;9.910;2023-02-01T01:23:42;6.70;99.90
21712;DHT22;11017;53.552;9.910;2023-02-01T01:26:12;6.70;99.90
21712;DHT22;11017;53.552;9.910;2023-02-01T01:28:40;6.70;99.90
21712;DHT22;11017;53.552;9.910;2023-02-01T01:31:08;6.60;99.90
21712;DHT22;11017;53.552;9.910;2023-02-01T01:33:35;6.70;99.90
21712;DHT22;11017;53.552;9.910;2023-02-01T01:36:04;6.70;99.90
21712;DHT22;11017;53.552;9.910;2023-02-01T01:38:31;6.70;99.90
21712;DHT22;11017;53.552;9.910;2023-02-01T01:41:00;6.70;99.90
21712;DHT22;11017;53.552;9.910;2023-02-01T01:43:52;6.70;99.90
21712;DHT22;11017;53.552;9.910;2023-02-01T01:46:20;6.70;99.90
21712;DHT22;11017;53.552;9.910;2023-02-01T01:48:51;6.80;99.90
21712;DHT22;11017;53.552;9.910;2023-02-01T01:51:21;6.90;99.90
21712;DHT22;11017;53.552;9.910;2023-02-01T01:53:56;6.80;99.90
21712;DHT22;11017;53.552;9.910;2023-02-01T01:56:26;6.80;99.90
21712;DHT22;11017;53.552;9.910;2023-02-01T01:58:55;6.80;99.90
21712;DHT22;11017;53.552;9.910;2023-02-01T02:01:22;6.80;99.90
21712;DHT22;11017;53.552;9.910;2023-02-01T02:03:50;6.90;99.90
21712;DHT22;11017;53.552;9.910;2023-02-01T02:06:26;6.90;99.90
21712;DHT22;11017;53.552;9.910;2023-02-01T02:08:54;6.90;99.90
21712;DHT22;11017;53.552;9.910;2023-02-01T02:11:20;6.90;99.90
21712;DHT22;11017;53.552;9.910;2023-02-01T02:13:52;6.80;99.90
21712;DHT22;11017;53.552;9.910;2023-02-01T02:16:45;6.90;99.90
21712;DHT22;11017;53.552;9.910;2023-02-01T02:19:32;6.80;99.90
21712;DHT22;11017;53.552;9.910;2023-02-01T02:22:24;6.80;99.90
21712;DHT22;11017;53.552;9.910;2023-02-01T02:28:17;6.60;99.90
21712;DHT22;11017;53.552;9.910;2023-02-01T02:33:50;6.60;99.90
21712;DHT22;11017;53.552;9.910;2023-02-01T02:36:24;6.60;99.90
21712;DHT22;11017;53.552;9.910;2023-02-01T02:39:01;6.50;99.90
21712;DHT22;11017;53.552;9.910;2023-02-01T02:41:34;6.50;99.90
21712;DHT22;11017;53.552;9.910;2023-02-01T02:44:28;6.50;99.90
21712;DHT22;11017;53.552;9.910;2023-02-01T02:47:21;6.50;99.90
21712;DHT22;11017;53.552;9.910;2023-02-01T02:50:02;6.50;99.90
21712;DHT22;11017;53.552;9.910;2023-02-01T02:52:52;6.60;99.90
21712;DHT22;11017;53.552;9.910;2023-02-01T02:55:39;6.50;99.90
21712;DHT22;11017;53.552;9.910;2023-02-01T02:58:07;6.50;99.90
21712;DHT22;11017;53.552;9.910;2023-02-01T03:00:55;6.60;99.90
21712;DHT22;11017;53.552;9.910;2023-02-01T03:03:40;6.50;99.90
21712;DHT22;11017;53.552;9.910;2023-02-01T03:06:26;6.60;99.90
21712;DHT22;11017;53.552;9.910;2023-02-01T03:08:56;6.50;99.90
21712;DHT22;11017;53.552;9.910;2023-02-01T03:11:24;6.50;99.90
21712;DHT22;11017;53.552;9.910;2023-02-01T03:14:14;6.40;99.90
21712;DHT22;11017;53.552;9.910;2023-02-01T03:16:45;6.40;99.90
21712;DHT22;11017;53.552;9.910;2023-02-01T03:19:16;6.30;99.90
21712;DHT22;11017;53.552;9.910;2023-02-01T03:21:48;6.20;99.90
21712;DHT22;11017;53.552;9.910;2023-02-01T03:24:21;6.10;99.90
21712;DHT22;11017;53.552;9.910;2023-02-01T03:27:02;6.20;99.90
21712;DHT22;11017;53.552;9.910;2023-02-01T03:29:37;6.10;99.90
21712;DHT22;11017;53.552;9.910;2023-02-01T03:32:05;6.00;99.90
21712;DHT22;11017;53.552;9.910;2023-02-01T03:34:33;5.90;99.90
21712;DHT22;11017;53.552;9.910;2023-02-01T03:37:04;5.90;99.90
21712;DHT22;11017;53.552;9.910;2023-02-01T03:39:36;5.80;99.90
21712;DHT22;11017;53.552;9.910;2023-02-01T03:42:09;5.80;99.90
21712;DHT22;11017;53.552;9.910;2023-02-01T03:44:40;5.70;99.90
21712;DHT22;11017;53.552;9.910;2023-02-01T03:47:14;5.60;99.90
21712;DHT22;11017;53.552;9.910;2023-02-01T03:49:47;5.60;99.90
21712;DHT22;11017;53.552;9.910;2023-02-01T03:52:21;5.60;99.90
21712;DHT22;11017;53.552;9.910;2023-02-01T03:54:50;5.70;99.90
21712;DHT22;11017;53.552;9.910;2023-02-01T03:57:22;5.70;99.90
21712;DHT22;11017;53.552;9.910;2023-02-01T03:59:50;5.90;99.90
21712;DHT22;11017;53.552;9.910;2023-02-01T04:02:17;5.90;99.90
21712;DHT22;11017;53.552;9.910;2023-02-01T04:04:44;6.00;99.90
21712;DHT22;11017;53.552;9.910;2023-02-01T04:07:11;6.00;99.90
21712;DHT22;11017;53.552;9.910;2023-02-01T04:09:39;6.00;99.90
21712;DHT22;11017;53.552;9.910;2023-02-01T04:12:06;5.90;99.90
21712;DHT22;11017;53.552;9.910;2023-02-01T04:14:33;6.00;99.90
21712;DHT22;11017;53.552;9.910;2023-02-01T04:17:00;5.90;99.90
21712;DHT22;11017;53.552;9.910;2023-02-01T04:19:27;5.90;99.90
21712;DHT22;11017;53.552;9.910;2023-02-01T04:21:53;6.10;99.90
21712;DHT22;11017;53.552;9.910;2023-02-01T04:24:20;6.10;99.90
21712;DHT22;11017;53.552;9.910;2023-02-01T04:26:48;6.00;99.90
21712;DHT22;11017;53.552;9.910;2023-02-01T04:29:15;6.00;99.90
21712;DHT22;11017;53.552;9.910;2023-02-01T04:31:42;5.90;99.90
21712;DHT22;11017;53.552;9.910;2023-02-01T04:34:09;5.90;99.90
21712;DHT22;11017;53.552;9.910;2023-02-01T04:36:36;5.90;99.90
21712;DHT22;11017;53.552;9.910;2023-02-01T04:39:03;5.80;99.90
21712;DHT22;11017;53.552;9.910;2023-02-01T04:41:30;5.80;99.90
21712;DHT22;11017;53.552;9.910;2023-02-01T04:43:58;5.70;99.90
21712;DHT22;11017;53.552;9.910;2023-02-01T04:46:25;5.60;99.90
21712;DHT22;11017;53.552;9.910;2023-02-01T04:48:52;5.60;99.90
21712;DHT22;11017;53.552;9.910;2023-02-01T04:51:19;5.70;99.90
21712;DHT22;11017;53.552;9.910;2023-02-01T04:53:46;5.80;99.90
21712;DHT22;11017;53.552;9.910;2023-02-01T04:56:13;5.70;99.90
21712;DHT22;11017;53.552;9.910;2023-02-01T04:58:40;5.50;99.90
21712;DHT22;11017;53.552;9.910;2023-02-01T05:01:08;5.50;99.90
21712;DHT22;11017;53.552;9.910;2023-02-01T05:03:35;5.50;99.90
21712;DHT22;11017;53.552;9.910;2023-02-01T05:06:02;5.50;99.90
21712;DHT22;11017;53.552;9.910;2023-02-01T05:08:31;5.20;99.90
21712;DHT22;11017;53.552;9.910;2023-02-01T05:10:58;5.00;99.90
21712;DHT22;11017;53.552;9.910;2023-02-01T05:13:28;4.70;99.90
21712;DHT22;11017;53.552;9.910;2023-02-01T05:16:14;4.70;99.90
21712;DHT22;11017;53.552;9.910;2023-02-01T05:18:41;4.50;99.90
21712;DHT22;11017;53.552;9.910;2023-02-01T05:21:08;4.40;99.90
21712;DHT22;11017;53.552;9.910;2023-02-01T05:23:35;4.40;99.90
21712;DHT22;11017;53.552;9.910;2023-02-01T05:26:22;4.40;99.90
21712;DHT22;11017;53.552;9.910;2023-02-01T05:28:49;4.40;99.90
21712;DHT22;11017;53.552;9.910;2023-02-01T05:31:17;4.30;99.90
21712;DHT22;11017;53.552;9.910;2023-02-01T05:33:44;4.20;99.90
21712;DHT22;11017;53.552;9.910;2023-02-01T05:36:11;4.40;99.90
21712;DHT22;11017;53.552;9.910;2023-02-01T05:38:38;4.30;99.90
21712;DHT22;11017;53.552;9.910;2023-02-01T05:41:05;4.20;99.90
21712;DHT22;11017;53.552;9.910;2023-02-01T05:43:32;4.20;99.90
21712;DHT22;11017;53.552;9.910;2023-02-01T05:45:59;4.20;99.90
21712;DHT22;11017;53.552;9.910;2023-02-01T05:48:28;4.10;99.90
21712;DHT22;11017;53.552;9.910;2023-02-01T05:50:55;4.20;99.90
21712;DHT22;11017;53.552;9.910;2023-02-01T05:53:22;4.20;99.90
21712;DHT22;11017;53.552;9.910;2023-02-01T05:55:49;4.10;99.90
21712;DHT22;11017;53.552;9.910;2023-02-01T05:58:16;4.10;99.90
21712;DHT22;11017;53.552;9.910;2023-02-01T06:00:42;4.20;99.90
21712;DHT22;11017;53.552;9.910;2023-02-01T06:03:09;4.20;99.90
21712;DHT22;11017;53.552;9.910;2023-02-01T06:05:38;4.20;99.90
21712;DHT22;11017;53.552;9.910;2023-02-01T06:08:05;4.30;99.90
21712;DHT22;11017;53.552;9.910;2023-02-01T06:10:33;4.30;99.90
21712;DHT22;11017;53.552;9.910;2023-02-01T06:13:00;4.40;99.90
21712;DHT22;11017;53.552;9.910;2023-02-01T06:15:28;4.30;99.90
21712;DHT22;11017;53.552;9.910;2023-02-01T06:17:56;4.30;99.90
21712;DHT22;11017;53.552;9.910;2023-02-01T06:20:22;4.40;99.90
21712;DHT22;11017;53.552;9.910;2023-02-01T06:22:51;4.60;99.90
21712;DHT22;11017;53.552;9.910;2023-02-01T06:25:19;4.60;99.90
21712;DHT22;11017;53.552;9.910;2023-02-01T06:27:46;4.70;99.90
21712;DHT22;11017;53.552;9.910;2023-02-01T06:30:14;4.80;99.90
21712;DHT22;11017;53.552;9.910;2023-02-01T06:32:41;4.80;99.90
21712;DHT22;11017;53.552;9.910;2023-02-01T06:35:09;4.80;99.90
21712;DHT22;11017;53.552;9.910;2023-02-01T06:37:42;4.80;99.90
21712;DHT22;11017;53.552;9.910;2023-02-01T06:40:11;4.80;99.90
21712;DHT22;11017;53.552;9.910;2023-02-01T06:42:38;4.90;99.90
21712;DHT22;11017;53.552;9.910;2023-02-01T06:45:06;4.90;99.90
21712;DHT22;11017;53.552;9.910;2023-02-01T06:47:33;4.90;99.90
21712;DHT22;11017;53.552;9.910;2023-02-01T06:50:00;5.00;99.90
21712;DHT22;11017;53.552;9.910;2023-02-01T06:52:27;5.00;99.90
21712;DHT22;11017;53.552;9.910;2023-02-01T06:54:54;4.90;99.90
21712;DHT22;11017;53.552;9.910;2023-02-01T06:57:22;4.90;99.90
21712;DHT22;11017;53.552;9.910;2023-02-01T06:59:49;5.00;99.90
21712;DHT22;11017;53.552;9.910;2023-02-01T07:02:16;5.10;99.90
21712;DHT22;11017;53.552;9.910;2023-02-01T07:04:43;5.10;99.90
21712;DHT22;11017;53.552;9.910;2023-02-01T07:07:10;5.20;99.90
21712;DHT22;11017;53.552;9.910;2023-02-01T07:09:37;5.20;99.90
21712;DHT22;11017;53.552;9.910;2023-02-01T07:12:05;5.30;99.90
21712;DHT22;11017;53.552;9.910;2023-02-01T07:14:33;5.20;99.90
21712;DHT22;11017;53.552;9.910;2023-02-01T07:17:00;5.30;99.90
21712;DHT22;11017;53.552;9.910;2023-02-01T07:19:27;5.40;99.90
21712;DHT22;11017;53.552;9.910;2023-02-01T07:21:54;5.30;99.90
21712;DHT22;11017;53.552;9.910;2023-02-01T07:24:21;5.30;99.90
21712;DHT22;11017;53.552;9.910;2023-02-01T07:26:48;5.30;99.90
21712;DHT22;11017;53.552;9.910;2023-02-01T07:29:16;5.40;99.90
21712;DHT22;11017;53.552;9.910;2023-02-01T07:31:45;5.50;99.90
21712;DHT22;11017;53.552;9.910;2023-02-01T07:34:12;5.60;99.90
21712;DHT22;11017;53.552;9.910;2023-02-01T07:36:39;5.70;99.90
21712;DHT22;11017;53.552;9.910;2023-02-01T07:39:07;5.70;99.90
21712;DHT22;11017;53.552;9.910;2023-02-01T07:41:34;5.80;99.90
21712;DHT22;11017;53.552;9.910;2023-02-01T07:44:01;5.80;99.90
21712;DHT22;11017;53.552;9.910;2023-02-01T07:46:31;5.80;99.90
21712;DHT22;11017;53.552;9.910;2023-02-01T07:48:59;5.90;99.90
21712;DHT22;11017;53.552;9.910;2023-02-01T07:51:26;5.90;99.90
21712;DHT22;11017;53.552;9.910;2023-02-01T07:53:53;5.80;99.90
21712;DHT22;11017;53.552;9.910;2023-02-01T07:56:20;5.90;99.90
21712;DHT22;11017;53.552;9.910;2023-02-01T07:58:48;5.90;99.90
21712;DHT22;11017;53.552;9.910;2023-02-01T08:01:16;6.00;99.90
21712;DHT22;11017;53.552;9.910;2023-02-01T08:03:45;6.10;99.90
21712;DHT22;11017;53.552;9.910;2023-02-01T08:06:14;6.00;99.90
21712;DHT22;11017;53.552;9.910;2023-02-01T08:08:41;6.00;99.90
21712;DHT22;11017;53.552;9.910;2023-02-01T08:11:11;6.10;99.90
21712;DHT22;11017;53.552;9.910;2023-02-01T08:13:38;6.10;99.90
21712;DHT22;11017;53.552;9.910;2023-02-01T08:16:06;6.00;99.90
21712;DHT22;11017;53.552;9.910;2023-02-01T08:18:34;6.00;99.90
21712;DHT22;11017;53.552;9.910;2023-02-01T08:21:03;6.10;99.90
21712;DHT22;11017;53.552;9.910;2023-02-01T08:23:32;6.30;99.90
21712;DHT22;11017;53.552;9.910;2023-02-01T08:26:07;6.30;99.90
21712;DHT22;11017;53.552;9.910;2023-02-01T08:28:34;6.40;99.90
21712;DHT22;11017;53.552;9.910;2023-02-01T08:31:04;6.40;99.90
21712;DHT22;11017;53.552;9.910;2023-02-01T08:33:32;6.70;99.90
21712;DHT22;11017;53.552;9.910;2023-02-01T08:36:01;6.90;99.90
21712;DHT22;11017;53.552;9.910;2023-02-01T08:38:28;6.80;99.90
21712;DHT22;11017;53.552;9.910;2023-02-01T08:40:56;6.60;99.90
21712;DHT22;11017;53.552;9.910;2023-02-01T08:43:25;6.50;99.90
21712;DHT22;11017;53.552;9.910;2023-02-01T08:45:54;6.60;99.90
21712;DHT22;11017;53.552;9.910;2023-02-01T08:48:22;6.60;99.90
21712;DHT22;11017;53.552;9.910;2023-02-01T08:50:49;6.80;99.90
21712;DHT22;11017;53.552;9.910;2023-02-01T08:53:16;6.80;99.90
21712;DHT22;11017;53.552;9.910;2023-02-01T08:55:45;6.80;99.90
21712;DHT22;11017;53.552;9.910;2023-02-01T08:58:13;6.80;99.90
21712;DHT22;11017;53.552;9.910;2023-02-01T09:00:42;6.80;99.90
21712;DHT22;11017;53.552;9.910;2023-02-01T09:03:13;6.90;99.90
21712;DHT22;11017;53.552;9.910;2023-02-01T09:05:41;6.90;99.90
21712;DHT22;11017;53.552;9.910;2023-02-01T09:08:08;7.00;99.90
21712;DHT22;11017;53.552;9.910;2023-02-01T09:10:36;6.90;99.90
21712;DHT22;11017;53.552;9.910;2023-02-01T09:13:02;6.90;99.90
21712;DHT22;11017;53.552;9.910;2023-02-01T09:15:31;6.90;99.90
21712;DHT22;11017;53.552;9.910;2023-02-01T09:17:58;7.00;99.90
21712;DHT22;11017;53.552;9.910;2023-02-01T09:20:25;7.10;99.90
21712;DHT22;11017;53.552;9.910;2023-02-01T09:22:54;7.10;99.90
21712;DHT22;11017;53.552;9.910;2023-02-01T09:25:21;6.90;99.90
21712;DHT22;11017;53.552;9.910;2023-02-01T09:27:48;6.90;99.90
21712;DHT22;11017;53.552;9.910;2023-02-01T09:30:15;6.70;99.90
21712;DHT22;11017;53.552;9.910;2023-02-01T09:32:43;6.70;99.90
21712;DHT22;11017;53.552;9.910;2023-02-01T09:35:10;6.70;99.90
21712;DHT22;11017;53.552;9.910;2023-02-01T09:37:37;6.70;99.90
21712;DHT22;11017;53.552;9.910;2023-02-01T09:40:05;6.80;99.90
21712;DHT22;11017;53.552;9.910;2023-02-01T09:42:48;6.90;99.90
21712;DHT22;11017;53.552;9.910;2023-02-01T09:45:24;7.00;99.90
21712;DHT22;11017;53.552;9.910;2023-02-01T09:47:58;6.90;99.90
21712;DHT22;11017;53.552;9.910;2023-02-01T09:50:33;7.00;99.90
21712;DHT22;11017;53.552;9.910;2023-02-01T09:53:02;7.20;99.90
21712;DHT22;11017;53.552;9.910;2023-02-01T09:55:36;7.20;99.90
21712;DHT22;11017;53.552;9.910;2023-02-01T09:58:09;7.30;99.90
21712;DHT22;11017;53.552;9.910;2023-02-01T10:00:39;7.40;99.90
21712;DHT22;11017;53.552;9.910;2023-02-01T10:03:12;7.50;99.90
21712;DHT22;11017;53.552;9.910;2023-02-01T10:05:54;7.40;99.90
21712;DHT22;11017;53.552;9.910;2023-02-01T10:08:33;7.40;99.90
21712;DHT22;11017;53.552;9.910;2023-02-01T10:11:13;7.40;99.90
21712;DHT22;11017;53.552;9.910;2023-02-01T10:13:51;7.40;99.90
21712;DHT22;11017;53.552;9.910;2023-02-01T10:16:27;7.40;99.90
21712;DHT22;11017;53.552;9.910;2023-02-01T10:19:19;7.30;99.90
21712;DHT22;11017;53.552;9.910;2023-02-01T10:21:54;7.30;99.90
21712;DHT22;11017;53.552;9.910;2023-02-01T10:24:39;7.40;99.90
21712;DHT22;11017;53.552;9.910;2023-02-01T10:27:19;7.40;99.90
21712;DHT22;11017;53.552;9.910;2023-02-01T10:29:50;7.30;99.90
21712;DHT22;11017;53.552;9.910;2023-02-01T10:32:21;7.20;99.90
21712;DHT22;11017;53.552;9.910;2023-02-01T10:34:53;7.10;99.90
21712;DHT22;11017;53.552;9.910;2023-02-01T10:37:28;7.10;99.90
21712;DHT22;11017;53.552;9.910;2023-02-01T10:39:57;7.00;99.90
21712;DHT22;11017;53.552;9.910;2023-02-01T10:42:27;7.00;99.90
21712;DHT22;11017;53.552;9.910;2023-02-01T10:44:56;7.00;99.90
21712;DHT22;11017;53.552;9.910;2023-02-01T10:47:24;6.90;99.90
21712;DHT22;11017;53.552;9.910;2023-02-01T10:49:58;7.00;99.90
21712;DHT22;11017;53.552;9.910;2023-02-01T10:52:35;7.10;99.90
21712;DHT22;11017;53.552;9.910;2023-02-01T10:55:32;7.00;99.90
21712;DHT22;11017;53.552;9.910;2023-02-01T10:58:01;6.90;99.90
21712;DHT22;11017;53.552;9.910;2023-02-01T11:00:37;6.90;99.90
21712;DHT22;11017;53.552;9.910;2023-02-01T11:03:31;7.10;99.90
21712;DHT22;11017;53.552;9.910;2023-02-01T11:06:01;7.00;99.90
21712;DHT22;11017;53.552;9.910;2023-02-01T11:08:29;7.10;99.90
21712;DHT22;11017;53.552;9.910;2023-02-01T11:10:58;7.00;99.90
21712;DHT22;11017;53.552;9.910;2023-02-01T11:13:29;7.10;99.90
21712;DHT22;11017;53.552;9.910;2023-02-01T11:15:57;7.20;99.90
21712;DHT22;11017;53.552;9.910;2023-02-01T11:18:27;7.20;99.90
21712;DHT22;11017;53.552;9.910;2023-02-01T11:20:55;7.30;99.90
21712;DHT22;11017;53.552;9.910;2023-02-01T11:23:24;7.20;99.90
21712;DHT22;11017;53.552;9.910;2023-02-01T11:25:54;7.20;99.90
21712;DHT22;11017;53.552;9.910;2023-02-01T11:28:24;7.30;99.90
21712;DHT22;11017;53.552;9.910;2023-02-01T11:30:55;7.30;99.90
21712;DHT22;11017;53.552;9.910;2023-02-01T11:33:27;7.20;99.90
21712;DHT22;11017;53.552;9.910;2023-02-01T11:35:57;7.30;99.90
21712;DHT22;11017;53.552;9.910;2023-02-01T11:38:28;7.30;99.90
21712;DHT22;11017;53.552;9.910;2023-02-01T11:41:14;7.30;99.90
21712;DHT22;11017;53.552;9.910;2023-02-01T11:43:53;7.20;99.90
21712;DHT22;11017;53.552;9.910;2023-02-01T11:46:24;7.20;99.90
21712;DHT22;11017;53.552;9.910;2023-02-01T11:48:55;7.10;99.90
21712;DHT22;11017;53.552;9.910;2023-02-01T11:51:36;7.10;99.90
21712;DHT22;11017;53.552;9.910;2023-02-01T11:54:23;7.10;99.90
21712;DHT22;11017;53.552;9.910;2023-02-01T11:57:04;7.00;99.90
21712;DHT22;11017;53.552;9.910;2023-02-01T11:59:54;6.80;99.90
21712;DHT22;11017;53.552;9.910;2023-02-01T12:02:49;6.70;99.90
21712;DHT22;11017;53.552;9.910;2023-02-01T12:05:25;6.70;99.90
21712;DHT22;11017;53.552;9.910;2023-02-01T12:08:16;6.70;99.90
21712;DHT22;11017;53.552;9.910;2023-02-01T12:10:56;6.60;99.90
21712;DHT22;11017;53.552;9.910;2023-02-01T12:13:36;6.50;99.90
21712;DHT22;11017;53.552;9.910;2023-02-01T12:16:13;6.50;99.90
21712;DHT22;11017;53.552;9.910;2023-02-01T12:18:57;6.60;99.90
21712;DHT22;11017;53.552;9.910;2023-02-01T12:21:53;6.50;99.90
21712;DHT22;11017;53.552;9.910;2023-02-01T12:24:40;6.40;99.90
21712;DHT22;11017;53.552;9.910;2023-02-01T12:27:33;6.50;99.90
21712;DHT22;11017;53.552;9.910;2023-02-01T12:30:18;6.50;99.90
21712;DHT22;11017;53.552;9.910;2023-02-01T12:32:57;6.30;99.90
21712;DHT22;11017;53.552;9.910;2023-02-01T12:38:31;6.00;99.90
21712;DHT22;11017;53.552;9.910;2023-02-01T12:41:20;5.90;99.90
21712;DHT22;11017;53.552;9.910;2023-02-01T12:43:55;5.80;99.90
21712;DHT22;11017;53.552;9.910;2023-02-01T12:46:26;5.70;99.90
21712;DHT22;11017;53.552;9.910;2023-02-01T12:48:57;5.60;99.90
21712;DHT22;11017;53.552;9.910;2023-02-01T12:51:28;5.50;99.90
21712;DHT22;11017;53.552;9.910;2023-02-01T12:54:00;5.50;99.90
21712;DHT22;11017;53.552;9.910;2023-02-01T12:56:31;5.50;99.90
21712;DHT22;11017;53.552;9.910;2023-02-01T12:59:04;5.50;99.90
21712;DHT22;11017;53.552;9.910;2023-02-01T13:01:37;5.50;99.90
21712;DHT22;11017;53.552;9.910;2023-02-01T13:04:12;5.40;99.90
21712;DHT22;11017;53.552;9.910;2023-02-01T13:06:45;5.40;99.90
21712;DHT22;11017;53.552;9.910;2023-02-01T13:09:20;5.40;99.90
21712;DHT22;11017;53.552;9.910;2023-02-01T13:11:49;5.40;99.90
21712;DHT22;11017;53.552;9.910;2023-02-01T13:14:26;5.30;99.90
21712;DHT22;11017;53.552;9.910;2023-02-01T13:16:59;5.50;99.90
21712;DHT22;11017;53.552;9.910;2023-02-01T13:19:30;5.80;99.90
21712;DHT22;11017;53.552;9.910;2023-02-01T13:22:02;6.00;99.90
21712;DHT22;11017;53.552;9.910;2023-02-01T13:24:36;6.60;99.90
21712;DHT22;11017;53.552;9.910;2023-02-01T13:27:05;7.10;99.90
21712;DHT22;11017;53.552;9.910;2023-02-01T13:29:33;7.30;99.90
21712;DHT22;11017;53.552;9.910;2023-02-01T13:32:14;7.90;99.90
21712;DHT22;11017;53.552;9.910;2023-02-01T13:38:10;7.50;99.90
21712;DHT22;11017;53.552;9.910;2023-02-01T13:40:42;7.10;99.90
21712;DHT22;11017;53.552;9.910;2023-02-01T13:43:13;6.80;99.90
21712;DHT22;11017;53.552;9.910;2023-02-01T13:45:46;6.60;99.90
21712;DHT22;11017;53.552;9.910;2023-02-01T13:48:21;6.50;99.90
21712;DHT22;11017;53.552;9.910;2023-02-01T13:50:55;6.30;99.90
21712;DHT22;11017;53.552;9.910;2023-02-01T13:53:28;6.20;99.90
21712;DHT22;11017;53.552;9.910;2023-02-01T13:55:58;6.30;99.90
21712;DHT22;11017;53.552;9.910;2023-02-01T13:58:32;6.40;99.90
21712;DHT22;11017;53.552;9.910;2023-02-01T14:01:34;6.30;99.90
21712;DHT22;11017;53.552;9.910;2023-02-01T14:04:04;6.20;99.90
21712;DHT22;11017;53.552;9.910;2023-02-01T14:06:44;6.30;99.90
21712;DHT22;11017;53.552;9.910;2023-02-01T14:09:31;6.40;99.90
21712;DHT22;11017;53.552;9.910;2023-02-01T14:15:22;6.80;99.90
21712;DHT22;11017;53.552;9.910;2023-02-01T14:17:50;7.00;99.90
21712;DHT22;11017;53.552;9.910;2023-02-01T14:20:46;6.80;99.90
21712;DHT22;11017;53.552;9.910;2023-02-01T14:23:24;6.80;99.90
21712;DHT22;11017;53.552;9.910;2023-02-01T14:26:07;6.70;99.90
21712;DHT22;11017;53.552;9.910;2023-02-01T14:28:39;6.70;99.90
21712;DHT22;11017;53.552;9.910;2023-02-01T14:31:16;6.70;99.90
21712;DHT22;11017;53.552;9.910;2023-02-01T14:33:46;6.60;99.90
21712;DHT22;11017;53.552;9.910;2023-02-01T14:36:14;6.40;99.90
21712;DHT22;11017;53.552;9.910;2023-02-01T14:38:48;6.20;99.90
21712;DHT22;11017;53.552;9.910;2023-02-01T14:41:26;6.20;99.90
21712;DHT22;11017;53.552;9.910;2023-02-01T14:47:25;5.70;99.90
21712;DHT22;11017;53.552;9.910;2023-02-01T14:49:58;5.80;99.90
21712;DHT22;11017;53.552;9.910;2023-02-01T14:52:32;5.80;99.90
21712;DHT22;11017;53.552;9.910;2023-02-01T14:55:03;5.90;99.90
21712;DHT22;11017;53.552;9.910;2023-02-01T14:57:34;5.90;99.90
21712;DHT22;11017;53.552;9.910;2023-02-01T15:00:16;5.90;99.90
21712;DHT22;11017;53.552;9.910;2023-02-01T15:02:45;5.90;99.90
21712;DHT22;11017;53.552;9.910;2023-02-01T15:05:28;5.80;99.90
21712;DHT22;11017;53.552;9.910;2023-02-01T15:07:58;5.80;99.90
21712;DHT22;11017;53.552;9.910;2023-02-01T15:10:27;5.90;99.90
21712;DHT22;11017;53.552;9.910;2023-02-01T15:12:56;5.80;99.90
21712;DHT22;11017;53.552;9.910;2023-02-01T15:15:24;5.80;99.90
21712;DHT22;11017;53.552;9.910;2023-02-01T15:17:53;5.80;99.90
21712;DHT22;11017;53.552;9.910;2023-02-01T15:20:23;5.80;99.90
21712;DHT22;11017;53.552;9.910;2023-02-01T15:22:55;5.70;99.90
21712;DHT22;11017;53.552;9.910;2023-02-01T15:25:25;5.70;99.90
21712;DHT22;11017;53.552;9.910;2023-02-01T15:27:52;5.60;99.90
21712;DHT22;11017;53.552;9.910;2023-02-01T15:30:22;5.60;99.90
21712;DHT22;11017;53.552;9.910;2023-02-01T15:32:49;5.50;99.90
21712;DHT22;11017;53.552;9.910;2023-02-01T15:35:34;5.60;99.90
21712;DHT22;11017;53.552;9.910;2023-02-01T15:38:29;5.50;99.90
21712;DHT22;11017;53.552;9.910;2023-02-01T15:40:59;5.40;99.90
21712;DHT22;11017;53.552;9.910;2023-02-01T15:43:28;5.40;99.90
21712;DHT22;11017;53.552;9.910;2023-02-01T15:45:57;5.40;99.90
21712;DHT22;11017;53.552;9.910;2023-02-01T15:48:25;5.40;99.90
21712;DHT22;11017;53.552;9.910;2023-02-01T15:50:54;5.40;99.90
21712;DHT22;11017;53.552;9.910;2023-02-01T15:53:24;5.50;99.90
21712;DHT22;11017;53.552;9.910;2023-02-01T15:55:56;5.70;99.90
21712;DHT22;11017;53.552;9.910;2023-02-01T15:58:26;5.70;99.90
21712;DHT22;11017;53.552;9.910;2023-02-01T16:00:55;5.70;99.90
21712;DHT22;11017;53.552;9.910;2023-02-01T16:03:33;5.60;99.90
21712;DHT22;11017;53.552;9.910;2023-02-01T16:06:05;5.60;99.90
21712;DHT22;11017;53.552;9.910;2023-02-01T16:08:32;5.60;99.90
21712;DHT22;11017;53.552;9.910;2023-02-01T16:11:20;5.60;99.90
21712;DHT22;11017;53.552;9.910;2023-02-01T16:13:49;5.60;99.90
21712;DHT22;11017;53.552;9.910;2023-02-01T16:16:15;5.80;99.90
21712;DHT22;11017;53.552;9.910;2023-02-01T16:18:43;5.70;99.90
21712;DHT22;11017;53.552;9.910;2023-02-01T16:21:11;5.70;99.90
21712;DHT22;11017;53.552;9.910;2023-02-01T16:23:38;5.90;99.90
21712;DHT22;11017;53.552;9.910;2023-02-01T16:26:05;5.80;99.90
21712;DHT22;11017;53.552;9.910;2023-02-01T16:28:32;5.80;99.90
21712;DHT22;11017;53.552;9.910;2023-02-01T16:30:59;5.80;99.90
21712;DHT22;11017;53.552;9.910;2023-02-01T16:33:27;5.80;99.90